createdAt,value
2022-10-24T00:01:21.662Z,12.55
2022-10-24T00:03:49.913Z,13.80
2022-10-24T00:06:18.412Z,13.98
2022-10-24T00:08:45.430Z,14.10
2022-10-24T00:11:15.969Z,13.45
2022-10-24T00:13:43.583Z,13.68
2022-10-24T00:16:11.554Z,13.95
2022-10-24T00:18:38.942Z,13.80
2022-10-24T00:21:06.385Z,13.88
2022-10-24T00:23:33.562Z,14.25
2022-10-24T00:26:02.005Z,15.35
2022-10-24T00:28:29.651Z,13.40
2022-10-24T00:30:57.006Z,14.45
2022-10-24T00:33:24.884Z,16.15
2022-10-24T00:35:51.985Z,15.57
2022-10-24T00:38:19.137Z,15.80
2022-10-24T00:40:46.477Z,15.60
2022-10-24T00:43:19.021Z,17.05
2022-10-24T00:45:50.894Z,14.87
2022-10-24T00:48:23.504Z,16.70
2022-10-24T00:50:54.893Z,15.35
2022-10-24T00:53:22.449Z,14.82
2022-10-24T00:55:52.997Z,14.95
2022-10-24T00:58:22.308Z,15.40
2022-10-24T01:00:49.784Z,15.25
2022-10-24T01:03:16.892Z,16.33
2022-10-24T01:06:10.364Z,15.77
2022-10-24T01:08:37.405Z,14.57
2022-10-24T01:11:23.054Z,16.35
2022-10-24T01:13:58.200Z,16.62
2022-10-24T01:16:32.396Z,16.50
2022-10-24T01:22:00.121Z,16.25
2022-10-24T01:24:55.813Z,15.65
2022-10-24T01:27:41.983Z,16.50
2022-10-24T01:30:11.693Z,15.98
2022-10-24T01:33:00.631Z,16.27
2022-10-24T01:35:46.362Z,16.10
2022-10-24T01:38:16.509Z,15.30
2022-10-24T01:40:46.448Z,15.25
2022-10-24T01:43:15.419Z,17.00
2022-10-24T01:45:46.392Z,16.45
2022-10-24T01:48:17.797Z,15.70
2022-10-24T01:50:46.169Z,15.02
2022-10-24T01:53:13.759Z,16.35
2022-10-24T01:55:41.275Z,17.58
2022-10-24T01:58:08.521Z,17.55
2022-10-24T02:00:36.184Z,17.58
2022-10-24T02:03:17.280Z,17.90
2022-10-24T02:05:49.494Z,16.87
2022-10-24T02:08:22.030Z,15.50
2022-10-24T02:10:53.189Z,14.45
2022-10-24T02:13:32.242Z,15.20
2022-10-24T02:16:00.836Z,16.08
2022-10-24T02:18:28.902Z,14.30
2022-10-24T02:21:08.193Z,15.10
2022-10-24T02:23:43.462Z,14.63
2022-10-24T02:26:20.522Z,15.23
2022-10-24T02:28:49.832Z,16.60
2022-10-24T02:31:22.060Z,15.20
2022-10-24T02:33:50.214Z,15.75
2022-10-24T02:36:20.157Z,15.65
2022-10-24T02:38:48.921Z,15.88
2022-10-24T02:41:21.306Z,15.15
2022-10-24T02:43:50.273Z,14.70
2022-10-24T02:46:18.906Z,15.32
2022-10-24T02:48:51.170Z,16.02
2022-10-24T02:51:21.052Z,15.90
2022-10-24T02:53:48.189Z,15.73
2022-10-24T02:56:15.208Z,16.60
2022-10-24T02:58:42.615Z,14.75
2022-10-24T03:01:09.733Z,15.52
2022-10-24T03:03:36.826Z,15.98
2022-10-24T03:06:04.250Z,15.20
2022-10-24T03:08:31.272Z,15.40
2022-10-24T03:10:58.284Z,15.07
2022-10-24T03:13:25.550Z,16.37
2022-10-24T03:15:52.602Z,17.10
2022-10-24T03:18:19.606Z,16.02
2022-10-24T03:20:47.109Z,16.33
2022-10-24T03:23:14.216Z,17.02
2022-10-24T03:25:41.219Z,15.50
2022-10-24T03:28:08.587Z,16.27
2022-10-24T03:30:35.618Z,16.42
2022-10-24T03:33:02.677Z,16.25
2022-10-24T03:35:30.524Z,15.65
2022-10-24T03:37:57.568Z,17.73
2022-10-24T03:40:24.560Z,15.77
2022-10-24T03:42:52.334Z,17.23
2022-10-24T03:45:19.370Z,14.38
2022-10-24T03:47:46.341Z,16.10
2022-10-24T03:50:13.663Z,15.55
2022-10-24T03:52:40.657Z,16.25
2022-10-24T03:55:08.043Z,17.00
2022-10-24T03:57:35.333Z,15.18
2022-10-24T04:00:02.441Z,16.08
2022-10-24T04:02:33.663Z,17.25
2022-10-24T04:05:01.484Z,16.92
2022-10-24T04:07:31.477Z,16.52
2022-10-24T04:09:58.521Z,17.10
2022-10-24T04:12:25.833Z,16.95
2022-10-24T04:14:52.986Z,15.85
2022-10-24T04:17:19.994Z,17.02
2022-10-24T04:19:47.353Z,16.52
2022-10-24T04:22:14.363Z,16.55
2022-10-24T04:24:41.699Z,16.45
2022-10-24T04:27:09.039Z,16.48
2022-10-24T04:29:36.497Z,16.92
2022-10-24T04:32:04.211Z,16.55
2022-10-24T04:34:35.994Z,16.77
2022-10-24T04:37:03.702Z,16.90
2022-10-24T04:39:30.725Z,16.85
2022-10-24T04:41:58.014Z,16.73
2022-10-24T04:44:25.006Z,18.52
2022-10-24T04:46:51.989Z,19.27
2022-10-24T04:49:19.884Z,20.35
2022-10-24T04:51:46.867Z,18.65
2022-10-24T04:54:13.996Z,19.23
2022-10-24T04:56:41.598Z,19.92
2022-10-24T04:59:08.609Z,21.00
2022-10-24T05:01:35.688Z,20.45
2022-10-24T05:04:03.163Z,20.80
2022-10-24T05:06:30.266Z,21.05
2022-10-24T05:08:57.273Z,21.20
2022-10-24T05:11:24.590Z,21.75
2022-10-24T05:13:51.578Z,19.12
2022-10-24T05:16:18.577Z,21.60
2022-10-24T05:18:45.879Z,21.67
2022-10-24T05:21:12.867Z,22.27
2022-10-24T05:23:39.898Z,21.25
2022-10-24T05:26:07.606Z,23.38
2022-10-24T05:28:35.779Z,22.13
2022-10-24T05:31:02.827Z,21.92
2022-10-24T05:33:30.217Z,21.00
2022-10-24T05:35:57.284Z,19.50
2022-10-24T05:38:25.013Z,21.77
2022-10-24T05:40:52.491Z,21.02
2022-10-24T05:43:19.594Z,22.20
2022-10-24T05:48:21.284Z,19.85
2022-10-24T05:50:48.338Z,20.88
2022-10-24T05:53:15.384Z,20.70
2022-10-24T05:55:42.940Z,21.87
2022-10-24T05:58:09.946Z,21.60
2022-10-24T06:00:37.047Z,19.80
2022-10-24T06:03:04.415Z,21.27
2022-10-24T06:05:31.421Z,21.67
2022-10-24T06:07:59.488Z,21.50
2022-10-24T06:10:26.882Z,21.87
2022-10-24T06:12:53.870Z,22.98
2022-10-24T06:15:21.001Z,22.75
2022-10-24T06:17:48.328Z,24.42
2022-10-24T06:20:15.342Z,25.08
2022-10-24T06:22:45.474Z,22.08
2022-10-24T06:25:14.100Z,22.33
2022-10-24T06:27:41.540Z,24.33
2022-10-24T06:30:10.357Z,23.70
2022-10-24T06:32:40.825Z,23.12
2022-10-24T06:35:13.383Z,23.20
2022-10-24T06:37:42.993Z,24.10
2022-10-24T06:40:13.600Z,23.87
2022-10-24T06:42:41.891Z,24.85
2022-10-24T06:45:09.330Z,23.27
2022-10-24T06:47:36.316Z,25.40
2022-10-24T06:50:04.490Z,23.02
2022-10-24T06:52:31.502Z,21.62
2022-10-24T06:54:58.517Z,24.80
2022-10-24T06:57:26.050Z,22.70
2022-10-24T06:59:53.650Z,21.67
2022-10-24T07:02:21.219Z,22.92
2022-10-24T07:04:48.624Z,23.70
2022-10-24T07:07:19.438Z,23.95
2022-10-24T07:09:52.296Z,22.98
2022-10-24T07:14:52.199Z,22.17
2022-10-24T07:17:20.146Z,22.55
2022-10-24T07:19:52.796Z,23.60
2022-10-24T07:22:20.130Z,22.85
2022-10-24T07:24:52.980Z,23.30
2022-10-24T07:27:21.128Z,22.10
2022-10-24T07:29:48.102Z,24.17
2022-10-24T07:32:15.177Z,23.08
2022-10-24T07:34:42.513Z,24.40
2022-10-24T07:37:09.591Z,23.15
2022-10-24T07:39:37.464Z,22.23
2022-10-24T07:42:04.825Z,23.45
2022-10-24T07:44:31.951Z,21.33
2022-10-24T07:46:58.974Z,22.67
2022-10-24T07:49:29.054Z,22.10
2022-10-24T07:51:58.497Z,22.90
2022-10-24T07:54:26.807Z,23.45
2022-10-24T07:56:54.282Z,24.25
2022-10-24T07:59:40.614Z,23.48
2022-10-24T08:02:11.258Z,23.70
2022-10-24T08:04:39.013Z,25.65
2022-10-24T08:07:13.089Z,24.52
2022-10-24T08:09:42.385Z,25.17
2022-10-24T08:12:10.039Z,23.42
2022-10-24T08:14:38.345Z,24.75
2022-10-24T08:17:05.751Z,23.23
2022-10-24T08:19:33.274Z,23.58
2022-10-24T08:22:01.013Z,23.87
2022-10-24T08:24:28.725Z,22.95
2022-10-24T08:26:58.273Z,25.10
2022-10-24T08:29:25.600Z,23.23
2022-10-24T08:31:54.730Z,25.70
2022-10-24T08:34:22.350Z,23.40
2022-10-24T08:36:49.827Z,23.60
2022-10-24T08:39:17.953Z,25.45
2022-10-24T08:42:12.344Z,22.90
2022-10-24T08:44:41.864Z,24.23
2022-10-24T08:47:09.995Z,23.60
2022-10-24T08:49:57.753Z,23.27
2022-10-24T08:52:31.714Z,24.27
2022-10-24T08:55:04.801Z,23.48
2022-10-24T08:57:34.930Z,22.90
2022-10-24T09:00:18.891Z,22.33
2022-10-24T09:02:51.496Z,21.52
2022-10-24T09:05:26.192Z,23.17
2022-10-24T09:08:03.170Z,23.77
2022-10-24T09:10:44.376Z,22.27
2022-10-24T09:13:14.294Z,23.27
2022-10-24T09:15:43.208Z,22.90
2022-10-24T09:18:34.898Z,22.00
2022-10-24T09:21:05.948Z,22.85
2022-10-24T09:23:34.413Z,22.65
2022-10-24T09:26:03.328Z,22.00
2022-10-24T09:28:31.441Z,20.33
2022-10-24T09:30:58.433Z,21.17
2022-10-24T09:33:30.324Z,22.70
2022-10-24T09:36:00.973Z,21.30
2022-10-24T09:38:34.235Z,22.02
2022-10-24T09:41:07.506Z,22.58
2022-10-24T09:43:43.385Z,22.35
2022-10-24T09:46:23.091Z,22.62
2022-10-24T09:48:50.183Z,22.87
2022-10-24T09:51:26.020Z,22.77
2022-10-24T09:54:11.916Z,21.40
2022-10-24T09:56:41.218Z,22.90
2022-10-24T09:59:20.289Z,19.10
2022-10-24T10:01:47.781Z,20.75
2022-10-24T10:04:17.640Z,21.00
2022-10-24T10:06:49.497Z,20.27
2022-10-24T10:09:24.770Z,21.05
2022-10-24T10:12:02.806Z,20.42
2022-10-24T10:14:30.413Z,20.70
2022-10-24T10:17:03.621Z,20.08
2022-10-24T10:19:39.113Z,19.25
2022-10-24T10:22:23.163Z,18.98
2022-10-24T10:24:51.662Z,18.85
2022-10-24T10:27:40.017Z,18.73
2022-10-24T10:30:16.105Z,17.85
2022-10-24T10:33:01.197Z,17.65
2022-10-24T10:35:38.408Z,17.83
2022-10-24T10:38:34.125Z,16.33
2022-10-24T10:41:04.108Z,18.40
2022-10-24T10:43:43.613Z,17.65
2022-10-24T10:46:29.766Z,18.55
2022-10-24T10:49:05.850Z,17.58
2022-10-24T10:51:44.484Z,16.48
2022-10-24T10:54:35.029Z,16.10
2022-10-24T10:57:17.228Z,17.87
2022-10-24T11:00:09.908Z,16.77
2022-10-24T11:03:11.262Z,15.25
2022-10-24T11:06:04.208Z,16.02
2022-10-24T11:09:02.507Z,16.83
2022-10-24T11:11:33.671Z,16.60
2022-10-24T11:14:37.191Z,16.50
2022-10-24T11:17:50.779Z,17.60
2022-10-24T11:20:28.176Z,18.27
2022-10-24T11:23:00.422Z,17.37
2022-10-24T11:25:37.567Z,17.55
2022-10-24T11:28:18.822Z,16.98
2022-10-24T11:31:07.062Z,16.60
2022-10-24T11:33:43.337Z,15.77
2022-10-24T11:36:16.092Z,16.50
2022-10-24T11:38:58.549Z,17.17
2022-10-24T11:41:33.368Z,16.08
2022-10-24T11:44:06.856Z,16.58
2022-10-24T11:46:42.350Z,16.70
2022-10-24T11:49:20.401Z,17.02
2022-10-24T11:52:01.857Z,17.02
2022-10-24T11:55:18.336Z,15.13
2022-10-24T11:57:52.462Z,15.70
2022-10-24T12:03:02.565Z,15.70
2022-10-24T12:05:52.693Z,16.45
2022-10-24T12:08:34.917Z,15.60
2022-10-24T12:11:12.956Z,16.90
2022-10-24T12:13:55.053Z,16.95
2022-10-24T12:17:06.428Z,17.10
2022-10-24T12:19:33.900Z,16.62
2022-10-24T12:22:02.376Z,17.42
2022-10-24T12:24:34.655Z,16.58
2022-10-24T12:27:05.117Z,16.98
2022-10-24T12:29:34.188Z,16.15
2022-10-24T12:32:28.610Z,16.58
2022-10-24T12:35:25.322Z,16.48
2022-10-24T12:37:49.160Z,19.00
2022-10-24T12:40:55.696Z,16.37
2022-10-24T12:43:35.215Z,16.48
2022-10-24T12:46:24.341Z,16.27
2022-10-24T12:48:57.452Z,18.02
2022-10-24T12:51:40.699Z,16.27
2022-10-24T12:54:14.518Z,17.27
2022-10-24T12:56:51.109Z,16.80
2022-10-24T12:59:29.430Z,17.23
2022-10-24T13:02:12.483Z,17.12
2022-10-24T13:04:52.243Z,16.95
2022-10-24T13:07:29.961Z,16.45
2022-10-24T13:10:21.344Z,17.60
2022-10-24T13:13:31.018Z,15.75
2022-10-24T13:16:03.361Z,17.45
2022-10-24T13:18:52.028Z,17.33
2022-10-24T13:21:51.446Z,18.67
2022-10-24T13:24:21.246Z,17.30
2022-10-24T13:26:53.662Z,17.77
2022-10-24T13:29:23.567Z,16.92
2022-10-24T13:31:55.424Z,16.73
2022-10-24T13:34:28.325Z,18.08
2022-10-24T13:37:06.279Z,17.48
2022-10-24T13:39:40.408Z,16.95
2022-10-24T13:42:40.031Z,18.20
2022-10-24T13:45:25.750Z,17.50
2022-10-24T13:47:57.047Z,18.00
2022-10-24T13:50:31.344Z,18.02
2022-10-24T13:53:06.516Z,17.35
2022-10-24T13:55:46.562Z,18.08
2022-10-24T13:58:21.037Z,18.87
2022-10-24T14:00:53.956Z,16.77
2022-10-24T14:03:23.847Z,18.20
2022-10-24T14:05:56.304Z,18.33
2022-10-24T14:08:37.129Z,19.05
2022-10-24T14:11:07.354Z,17.27
2022-10-24T14:13:39.212Z,19.73
2022-10-24T14:16:07.869Z,19.30
2022-10-24T14:18:38.075Z,18.95
2022-10-24T14:21:05.936Z,18.52
2022-10-24T14:23:40.363Z,20.33
2022-10-24T14:26:12.732Z,17.48
2022-10-24T14:28:45.361Z,17.17
2022-10-24T14:31:24.889Z,16.83
2022-10-24T14:33:54.591Z,16.90
2022-10-24T14:36:24.237Z,15.95
2022-10-24T14:38:55.288Z,17.83
2022-10-24T14:41:29.671Z,16.37
2022-10-24T14:43:58.707Z,16.73
2022-10-24T14:46:40.206Z,17.25
2022-10-24T14:49:26.057Z,16.92
2022-10-24T14:52:16.694Z,16.73
2022-10-24T14:54:55.407Z,18.17
2022-10-24T14:57:23.124Z,16.90
2022-10-24T14:59:51.850Z,16.30
2022-10-24T15:02:20.719Z,17.42
2022-10-24T15:04:48.189Z,17.52
2022-10-24T15:07:20.916Z,15.32
2022-10-24T15:09:58.947Z,15.03
2022-10-24T15:12:37.710Z,12.82
2022-10-24T15:15:23.601Z,13.20
2022-10-24T15:17:51.849Z,14.05
2022-10-24T15:20:22.106Z,14.45
2022-10-24T15:22:51.221Z,16.25
2022-10-24T15:25:34.056Z,15.23
2022-10-24T15:30:37.155Z,13.18
2022-10-24T15:33:05.864Z,14.17
2022-10-24T15:35:40.031Z,13.32
2022-10-24T15:40:43.503Z,13.48
2022-10-24T15:43:13.114Z,14.05
2022-10-24T15:45:40.384Z,14.60
2022-10-24T15:48:07.400Z,14.73
2022-10-24T15:50:34.678Z,13.55
2022-10-24T15:53:03.902Z,13.15
2022-10-24T15:55:32.138Z,15.73
2022-10-24T15:58:03.134Z,16.17
2022-10-24T16:00:30.468Z,15.13
2022-10-24T16:02:58.482Z,15.32
2022-10-24T16:05:29.594Z,14.52
2022-10-24T16:07:59.451Z,14.00
2022-10-24T16:10:26.729Z,16.25
2022-10-24T16:12:53.789Z,15.82
2022-10-24T16:15:24.655Z,14.93
2022-10-24T16:17:51.957Z,17.65
2022-10-24T16:20:19.566Z,15.18
2022-10-24T16:22:47.284Z,16.30
2022-10-24T16:25:26.061Z,15.88
2022-10-24T16:27:53.581Z,16.55
2022-10-24T16:30:24.140Z,15.00
2022-10-24T16:32:51.604Z,16.15
2022-10-24T16:35:21.674Z,16.17
2022-10-24T16:37:48.983Z,16.67
2022-10-24T16:40:16.626Z,15.88
2022-10-24T16:42:43.920Z,18.70
2022-10-24T16:45:11.763Z,19.58
2022-10-24T16:47:38.825Z,28.30
2022-10-24T16:50:06.759Z,29.55
2022-10-24T16:52:34.116Z,20.80
2022-10-24T16:55:01.122Z,24.73
2022-10-24T16:57:28.165Z,24.48
2022-10-24T16:59:55.581Z,25.15
2022-10-24T17:02:22.662Z,22.73
2022-10-24T17:04:49.681Z,20.42
2022-10-24T17:07:16.977Z,21.50
2022-10-24T17:09:43.962Z,18.15
2022-10-24T17:12:10.975Z,17.23
2022-10-24T17:14:38.823Z,19.25
2022-10-24T17:17:06.238Z,18.45
2022-10-24T17:19:35.686Z,21.52
2022-10-24T17:22:03.312Z,19.77
2022-10-24T17:24:30.505Z,21.58
2022-10-24T17:26:57.780Z,22.58
2022-10-24T17:29:33.421Z,21.65
2022-10-24T17:32:00.626Z,18.77
2022-10-24T17:34:28.406Z,19.37
2022-10-24T17:37:13.463Z,19.52
2022-10-24T17:39:56.234Z,17.67
2022-10-24T17:42:23.334Z,19.62
2022-10-24T17:44:50.805Z,19.67
2022-10-24T17:47:17.920Z,18.27
2022-10-24T17:49:45.541Z,18.35
2022-10-24T17:52:16.274Z,18.95
2022-10-24T17:54:45.697Z,18.27
2022-10-24T17:57:13.268Z,18.58
2022-10-24T17:59:40.348Z,18.33
2022-10-24T18:02:12.246Z,20.35
2022-10-24T18:04:42.103Z,21.33
2022-10-24T18:07:09.354Z,19.65
2022-10-24T18:09:39.066Z,19.50
2022-10-24T18:12:06.695Z,21.67
2022-10-24T18:14:36.296Z,20.25
2022-10-24T18:17:03.619Z,19.95
2022-10-24T18:19:30.873Z,19.40
2022-10-24T18:21:59.210Z,19.67
2022-10-24T18:24:26.235Z,19.87
2022-10-24T18:26:53.519Z,18.70
2022-10-24T18:29:20.526Z,18.00
2022-10-24T18:31:47.552Z,16.55
2022-10-24T18:34:14.845Z,17.50
2022-10-24T18:36:41.847Z,19.60
2022-10-24T18:39:08.856Z,16.48
2022-10-24T18:41:54.625Z,18.98
2022-10-24T18:44:33.396Z,18.98
2022-10-24T18:47:05.576Z,18.70
2022-10-24T18:49:33.875Z,19.65
2022-10-24T18:52:10.229Z,19.08
2022-10-24T18:54:40.096Z,18.77
2022-10-24T18:57:22.607Z,20.25
2022-10-24T18:59:50.356Z,18.70
2022-10-24T19:02:29.347Z,19.55
2022-10-24T19:05:11.322Z,18.92
2022-10-24T19:07:38.739Z,18.90
2022-10-24T19:10:06.310Z,19.45
2022-10-24T19:12:33.411Z,19.27
2022-10-24T19:15:00.831Z,20.33
2022-10-24T19:17:27.890Z,20.20
2022-10-24T19:19:57.327Z,18.48
2022-10-24T19:22:24.802Z,18.20
2022-10-24T19:24:51.940Z,19.70
2022-10-24T19:27:18.913Z,19.02
2022-10-24T19:29:46.204Z,17.25
2022-10-24T19:32:13.186Z,18.80
2022-10-24T19:34:41.375Z,19.05
2022-10-24T19:37:09.774Z,19.45
2022-10-24T19:39:36.760Z,18.33
2022-10-24T19:42:03.990Z,19.92
2022-10-24T19:44:31.322Z,20.62
2022-10-24T19:46:58.320Z,20.25
2022-10-24T19:49:25.337Z,19.58
2022-10-24T19:51:52.661Z,20.35
2022-10-24T19:54:19.990Z,19.80
2022-10-24T19:56:49.323Z,20.20
2022-10-24T19:59:16.771Z,23.15
2022-10-24T20:01:43.858Z,22.37
2022-10-24T20:04:11.249Z,22.73
2022-10-24T20:06:38.325Z,22.50
2022-10-24T20:09:05.702Z,23.25
2022-10-24T20:11:33.017Z,22.02
2022-10-24T20:14:00.035Z,24.73
2022-10-24T20:16:27.083Z,23.30
2022-10-24T20:18:54.464Z,22.45
2022-10-24T20:21:21.520Z,23.08
2022-10-24T20:23:49.228Z,23.77
2022-10-24T20:26:19.303Z,23.62
2022-10-24T20:28:48.409Z,25.12
2022-10-24T20:31:21.203Z,24.12
2022-10-24T20:33:48.885Z,23.93
2022-10-24T20:36:16.063Z,24.77
2022-10-24T20:38:43.029Z,23.27
2022-10-24T20:41:10.351Z,25.65
2022-10-24T20:43:37.432Z,24.30
2022-10-24T20:46:05.721Z,23.48
2022-10-24T20:48:34.041Z,23.75
2022-10-24T20:51:13.660Z,26.95
2022-10-24T20:53:41.853Z,23.48
2022-10-24T20:56:14.004Z,24.90
2022-10-24T20:58:42.651Z,26.77
2022-10-24T21:01:15.049Z,25.27
2022-10-24T21:03:42.932Z,25.88
2022-10-24T21:06:36.560Z,26.85
2022-10-24T21:09:05.550Z,27.75
2022-10-24T21:11:33.589Z,29.52
2022-10-24T21:14:09.637Z,28.73
2022-10-24T21:16:36.993Z,29.30
2022-10-24T21:19:04.336Z,27.67
2022-10-24T21:21:31.471Z,28.38
2022-10-24T21:24:03.960Z,24.92
2022-10-24T21:26:35.104Z,28.85
2022-10-24T21:29:09.358Z,28.42
2022-10-24T21:31:51.454Z,26.45
2022-10-24T21:34:19.222Z,26.95
2022-10-24T21:36:46.218Z,29.35
2022-10-24T21:39:15.500Z,27.08
2022-10-24T21:41:43.157Z,26.60
2022-10-24T21:44:10.307Z,27.62
2022-10-24T21:46:37.425Z,27.92
2022-10-24T21:49:04.878Z,27.98
2022-10-24T21:51:34.178Z,26.80
2022-10-24T21:54:06.889Z,25.85
2022-10-24T21:56:36.844Z,27.80
2022-10-24T21:59:06.614Z,28.90
2022-10-24T22:01:36.023Z,30.52
2022-10-24T22:04:04.430Z,31.20
2022-10-24T22:06:32.569Z,32.53
2022-10-24T22:09:00.503Z,32.65
2022-10-24T22:11:29.878Z,32.10
2022-10-24T22:13:57.552Z,33.30
2022-10-24T22:16:26.725Z,33.85
2022-10-24T22:18:54.532Z,34.67
2022-10-24T22:21:27.588Z,36.63
2022-10-24T22:23:56.587Z,40.78
2022-10-24T22:26:24.180Z,42.97
2022-10-24T22:28:51.414Z,44.28
2022-10-24T22:31:19.021Z,48.85
2022-10-24T22:33:46.193Z,51.72
2022-10-24T22:36:21.276Z,51.08
2022-10-24T22:38:52.590Z,41.80
2022-10-24T22:41:20.742Z,38.25
2022-10-24T22:43:48.193Z,35.22
2022-10-24T22:46:45.647Z,36.10
2022-10-24T22:49:38.540Z,29.73
2022-10-24T22:52:06.269Z,31.90
2022-10-24T22:54:35.492Z,28.98
2022-10-24T22:57:04.075Z,30.27
2022-10-24T22:59:33.375Z,29.23
2022-10-24T23:02:08.458Z,27.15
2022-10-24T23:04:45.920Z,25.70
2022-10-24T23:07:30.594Z,26.30
2022-10-24T23:09:57.894Z,25.37
2022-10-24T23:12:25.378Z,27.10
2022-10-24T23:14:53.389Z,25.10
2022-10-24T23:17:26.142Z,24.25
2022-10-24T23:19:54.141Z,24.15
2022-10-24T23:22:32.633Z,25.35
2022-10-24T23:25:01.054Z,24.48
2022-10-24T23:27:43.167Z,23.75
2022-10-24T23:30:17.910Z,25.62
2022-10-24T23:32:46.899Z,24.65
2022-10-24T23:35:15.567Z,26.65
2022-10-24T23:37:50.537Z,26.73
2022-10-24T23:40:17.732Z,26.52
2022-10-24T23:42:46.044Z,24.90
2022-10-24T23:45:14.948Z,25.75
2022-10-24T23:48:03.925Z,27.08
2022-10-24T23:50:49.701Z,27.30
2022-10-24T23:53:32.519Z,24.77
2022-10-24T23:58:32.091Z,24.87
